Sotirios Stafylidis

Scout - PAOK
3 Dez 2028
Sonntag
Verarbeitung

Persönlichkeit

Anpassungsfähigkeit (5) Ehrgeiz (18) Kontroverse (14) Loyalität (9) Druck (9) Professionalität (11) Fairness (2) Temperament (5)

Profil

Trainerstil Demokratisch
Lizenz Kontinentale B
Entschlossenheit 5
Menschenführung 9
Motivation 12
Disziplin 9
Arbeitszufriedenheit
100%
Ermüdung
0%
Rolle Scout
Gehalt 53.6K p/W
Vertrag 14.03.2030

Leistung

Verhalten Gut
Trainingseffektivität
48%
Spielerentwicklung
25%
Verletzungsprävention
60%
Taktische Umsetzung
45%

Letzte Ereignisse

Nahm an einer Scouting-Besprechung teil jetzt
Empfahl ein Transferziel jetzt
Empfahl ein Transferziel jetzt
Spieler begutachtet jetzt
Spieler begutachtet jetzt
Spieler begutachtet jetzt
Spieler begutachtet jetzt
Spiel beobachtet jetzt

Aktuell beobachtet

93
Spieler Verein Status Fähigkeit Vertrauen Beobachtet Zuletzt beobachtet Letzte Stimme
Luis Otávio Orlando City Aktiv 123 / 117 40% 7 02.12.2028 -
Ramiro Buratti River Plate Aktiv 98 / 113 40% 2 01.12.2028 -
Thiago Nahuel Independiente Aktiv 103 / 97 40% 1 01.12.2028 -
Lautaro Martínez Huracán Aktiv 108 / 114 40% 1 01.12.2028 -
Robert Cook Accrington Stanley Aktiv 112 / 120 40% 4 30.11.2028 -
Jack Porter Port Vale Aktiv 117 / 119 40% 1 30.11.2028 -
Ignacio Cardozo Vélez Aktiv 105 / 108 40% 1 30.11.2028 -
Celías Ingenthron Platense Aktiv 119 / 135 40% 3 29.11.2028 -
Thijs Kraaijeveld USM Alger Aktiv 136 / 133 40% 1 29.11.2028 -
Tyler Fletcher Rotherham United Aktiv 120 / 124 40% 3 28.11.2028 -
Tomás Valentukonis Najran Aktiv 96 / 96 40% 1 28.11.2028 -
Jan Bürger Northampton Town Aktiv 121 / 121 40% 1 28.11.2028 -
Damián Constanzo River Plate Aktiv 89 / 102 40% 2 27.11.2028 -
Cameron Byrne-Hughes Panathinaikos Aktiv 116 / 115 40% 2 27.11.2028 -
Dylan Martínez River Plate Aktiv 107 / 101 40% 1 27.11.2028 -
Kai Crampton Rapid Wien Aktiv 105 / 112 40% 2 25.11.2028 -
Sam Proctor Salford City Aktiv 123 / 126 40% 3 25.11.2028 -
Tobías Andrada River Plate Aktiv 123 / 126 40% 1 24.11.2028 -
Bence Szakos Aris Aktiv 99 / 103 40% 1 24.11.2028 -
Joaquín Salas Reading Aktiv 99 / 102 40% 1 24.11.2028 -
Azizbek To'lqinbekov Bunyodkor Aktiv 104 / 101 40% 1 23.11.2028 -
Ayyoub Bouaddi Stoke City Aktiv 156 / 163 40% 1 23.11.2028 -
Nikola Simić Partizan Aktiv 128 / 134 40% 1 23.11.2028 -
Gerardo Díaz San Martín SJ Aktiv 102 / 114 40% 1 22.11.2028 -
Matei Popa Astra Aktiv 118 / 120 40% 1 22.11.2028 -
Joel Ezra Enyimba Aktiv 103 / 101 40% 2 21.11.2028 -
Kiani Inge Groningen Aktiv 116 / 125 40% 1 21.11.2028 -
Lamine Bèye Portimonense Aktiv 122 / 130 40% 1 20.11.2028 -
Felipe Pujol Vélez Aktiv 105 / 122 40% 1 20.11.2028 -
Stathis Beleris Getafe Aktiv 98 / 105 40% 1 19.11.2028 -
Giovanni Leoni Lincoln City Aktiv 144 / 155 40% 3 17.11.2028 -
Luka Vušković Tottenham Aktiv 146 / 163 40% 3 15.11.2028 -
Veljko Milosavljević Bournemouth Aktiv 147 / 156 40% 2 14.11.2028 -
Filipe Sousa Porto Aktiv 109 / 103 40% 1 14.11.2028 -
Ale Gomes Zaragoza Aktiv 116 / 131 40% 1 14.11.2028 -
Lisandro Musso Central Córdoba SdE Aktiv 106 / 106 40% 2 13.11.2028 -
Ayoub Akabou Ceuta Aktiv 102 / 116 40% 1 13.11.2028 -
Thiago Sabella Banfield Aktiv 101 / 112 40% 1 13.11.2028 -
Jorge Salinas Racing Santander Aktiv 141 / 134 40% 3 11.11.2028 -
Nejc Viher NK Maribor Aktiv 118 / 123 40% 1 11.11.2028 -
Agustín Martínez Cádiz Aktiv 102 / 114 40% 1 11.11.2028 -
Luis Lines Norwich City Aktiv 95 / 98 40% 1 10.11.2028 -
Williams Hlatshwayo PSV Aktiv 109 / 108 40% 1 10.11.2028 -
Luciano Posadas Central Córdoba SdE Aktiv 106 / 95 40% 1 09.11.2028 -
Mateo Caballero Defensor Sporting Aktiv 95 / 99 40% 1 09.11.2028 -
Honest Ahanor Atalanta Aktiv 144 / 149 40% 2 08.11.2028 -
Rhys Chadwick Blackpool Aktiv 105 / 118 40% 1 08.11.2028 -
Ianis Marin Pandurii Aktiv 106 / 103 40% 1 08.11.2028 -
Nejc Brekalo NK Domzale Aktiv 105 / 117 40% 1 06.11.2028 -
Vasilije Novičić IMT Aktiv 112 / 109 40% 1 06.11.2028 -
Louis Page Leicester City Aktiv 140 / 135 40% 1 06.11.2028 -
Carlos Nemocón Santa Fe Aktiv 98 / 110 40% 1 11.10.2028 -
Martín Díaz Lanús Aktiv 98 / 101 40% 1 11.10.2028 -
Ionuţ Cercel Petrolul Aktiv 105 / 114 40% 1 07.10.2028 -
Yury Oyarzo Racing Aktiv 104 / 97 40% 1 07.10.2028 -
Agustín Cañete Banfield Aktiv 107 / 115 40% 2 06.10.2028 -
Gabriel Maureira Colo-Colo Aktiv 92 / 108 40% 1 06.10.2028 -
Dylan Moody Cheltenham Town Aktiv 122 / 132 40% 1 06.10.2028 -
Jon Cruz Barcelona Aktiv 115 / 132 40% 1 05.10.2028 -
Iason Georgakopoulos Giresunspor Aktiv 106 / 118 40% 1 05.10.2028 -
Tobías Pantoja Central Norte Aktiv 96 / 118 40% 1 04.10.2028 -
Peyton Miller New England Revolution Aktiv 117 / 116 40% 1 02.10.2028 -
Riquelme Thompson-Jones Accrington Stanley Aktiv 111 / 116 40% 1 02.10.2028 -
Sergio Martínez Real Madrid Aktiv 124 / 126 40% 1 02.10.2028 -
Alexandros Maskanakis Kifisia Aktiv 115 / 118 42% 1 / 1m 27.09.2028 -
Benny Kifisia Aktiv 131 / 131 30% 1 / 1m 27.09.2028 -
Sebastian Rodriguez Houston Dynamo Aktiv 118 / 137 40% 1 05.09.2028 -
Alex Verón Vélez Aktiv 121 / 114 40% 1 05.09.2028 -
Ryan McAidoo Oldham Athletic Aktiv 124 / 136 40% 1 05.09.2028 -
Diogo Ferreira Benfica Aktiv 134 / 134 40% 1 28.08.2028 -
Vuk Draškić Hamburger SV Aktiv 116 / 128 40% 1 28.08.2028 -
Léo Nannetti Flamengo Verloren 96 / 117 40% 1 14.08.2028 -
Lwandiso Radebe Ajax Cape Town Aktiv 114 / 118 40% 1 14.08.2028 -
Sebastián Palacios Aris Thessaloniki Verloren 119 / 120 76% 1 07.08.2028 -
Farren Doran Tottenham Aktiv 102 / 108 40% 1 07.08.2028 -
Cheveyo Tsawa Club Brugge Aktiv 134 / 130 40% 2 05.07.2028 -
Augusto Bando Ascoli Aktiv 108 / 122 40% 1 05.07.2028 -
Aitor Cantalapiedra OFI Verloren 134 / 120 76% 1 03.07.2028 -
Pione Sisto AEL Larisa Verloren 122 / 123 76% 1 19.06.2028 -
Andrey Ivlev Nizhniy Novgorod Aktiv 109 / 124 40% 2 12.06.2028 -
Lazaros Lamprou Volos NPS Aktiv 122 / 117 76% 1 03.06.2028 Befürworten
Amine Boukamir Charleroi Aktiv 110 / 110 40% 1 01.06.2028 -
Julen Agirrezabala Real Sociedad Aktiv 155 / 158 40% 1 31.05.2028 -
Felipe Faúndez O'Higgins Aktiv 98 / 117 40% 2 23.08.2027 -
Victor Hernandez Santa Fe Aktiv 118 / 115 40% 1 23.08.2027 -
Mbekezeli Mbokazi Chicago Fire Aktiv 119 / 118 40% 1 16.08.2027 -
Olaniyi Saheed Kwara United Aktiv 94 / 98 40% 1 16.08.2027 -
Rhys Walters Port Vale Aktiv 100 / 115 40% 1 02.08.2027 -
Jenson Jones Walsall Aktiv 95 / 102 40% 1 02.08.2027 -
Miguel Figueiredo Benfica Aktiv 118 / 127 40% 1 02.08.2027 -
Noah Fadiga Aris Thessaloniki Aktiv 115 / 119 69% 1 01.06.2027 Befürworten
Hamza Mendyl Volos NPS Verloren 115 / 116 69% 1 06.01.2027 -
Gabriel Pirani San Diego Football Club Aktiv 124 / 140 40% 1 02.08.2026 -